Terminal Aerodrome Forecast
Issued by NWS

Home | Current Version | Previous Version | Text Only | Print | Product List | Glossary On
Versions: 1 2 3 4 5 6 7 8 9 10 11 12 13 14 15 16 17 18 19
000
FTUS44 KMAF 260230 AAB
TAFFST
TAF AMD
KFST 260230Z 2603/2624 13015G24KT P6SM SCT100 BKN250
      TEMPO 2603/2604 VRB20G30KT P6SM -TSRA BKN080CB
     FM260900 20010KT P6SM BKN110 BKN250
     FM261500 25012G20KT P6SM SCT120 SCT250=

USA.gov is the U.S. government's official web portal to all federal, state and local government web resources and services.